Time;durP1;ratioP1;P1;durP2;ratioP2;P2;SDS_P1;SDS_P2;PMS_P1;PMS_P2;Temp;Humidity;BMP_temperature;BMP_pressure;BME280_temperature;BME280_humidity;BME280_pressure;Samples;Min_cycle;Max_cycle;Signal;HPM_P1;HPM_P2
2023/04/06 00:00:36;;;;;;;16.90;8.80;;;;;;;-141.97;81.38;47638.25;5035162;28;20177;-91
2023/04/06 00:03:02;;;;;;;17.90;9.43;;;;;;;-141.97;81.01;47728.59;5035635;28;20185;-91
2023/04/06 00:05:30;;;;;;;17.57;9.20;;;;;;;-141.97;81.34;47807.41;5036298;28;20622;-91
2023/04/06 00:07:55;;;;;;;17.50;8.67;;;;;;;-141.97;81.33;47722.81;5047901;28;20185;-90
2023/04/06 00:10:21;;;;;;;15.37;8.53;;;;;;;-141.97;81.65;47649.78;5056094;28;20417;-91
2023/04/06 00:12:46;;;;;;;14.53;8.47;;;;;;;-141.97;81.44;47757.41;5051883;28;20601;-90
2023/04/06 00:15:12;;;;;;;14.20;7.87;;;;;;;-141.97;81.82;47695.91;5036515;28;20180;-91
2023/04/06 00:17:37;;;;;;;18.77;10.00;;;;;;;-141.97;81.91;47680.53;5035142;28;20228;-91
2023/04/06 00:20:03;;;;;;;16.20;9.33;;;;;;;-141.97;82.27;47866.97;5035162;28;20181;-91
2023/04/06 00:22:28;;;;;;;15.83;8.03;;;;;;;-141.97;82.58;47876.59;5034279;28;20232;-91
2023/04/06 00:24:54;;;;;;;13.93;7.47;;;;;;;-141.97;82.72;47686.31;5036112;28;20198;-90
2023/04/06 00:27:19;;;;;;;13.67;6.83;;;;;;;-141.97;82.45;47738.19;5033693;28;20192;-90
2023/04/06 00:29:45;;;;;;;19.07;10.20;;;;;;;-141.97;83.31;47638.25;5034556;28;20176;-91
2023/04/06 00:32:10;;;;;;;16.07;8.87;;;;;;;-141.97;83.11;47722.81;5034821;28;20582;-90
2023/04/06 00:34:36;;;;;;;21.07;10.70;;;;;;;-141.97;83.37;47734.34;5034651;28;20232;-90
2023/04/06 00:37:01;;;;;;;18.43;9.70;;;;;;;-141.97;83.50;47799.72;5042070;28;20241;-90
2023/04/06 00:39:26;;;;;;;14.83;7.90;;;;;;;-141.97;83.83;47726.66;5059164;28;20174;-89
2023/04/06 00:41:53;;;;;;;19.73;10.57;;;;;;;-141.97;83.39;47845.84;5057671;28;20166;-90
2023/04/06 00:44:19;;;;;;;13.97;7.77;;;;;;;-141.97;83.42;47659.38;5034867;28;20593;-89
2023/04/06 00:46:45;;;;;;;20.73;10.33;;;;;;;-141.97;83.79;47776.63;5034352;28;20420;-89
2023/04/06 00:49:11;;;;;;;20.33;11.07;;;;;;;-141.97;83.59;47732.44;5034288;28;20404;-90
2023/04/06 00:51:36;;;;;;;19.30;9.50;;;;;;;-141.97;83.73;47761.25;5034546;28;20176;-91
2023/04/06 00:54:02;;;;;;;16.87;7.87;;;;;;;-141.97;83.96;47792.03;5034078;28;20169;-91
2023/04/06 00:56:27;;;;;;;21.47;11.43;;;;;;;-141.97;83.79;47767.03;5034023;28;20574;-90
2023/04/06 00:58:53;;;;;;;19.03;9.87;;;;;;;-141.97;83.69;47665.16;5035467;28;20193;-90
2023/04/06 01:01:19;;;;;;;15.80;7.63;;;;;;;-141.97;83.92;47772.78;5040895;28;20216;-89
2023/04/06 01:03:48;;;;;;;16.73;9.27;;;;;;;-141.97;83.40;47703.59;5039204;28;20652;-90
2023/04/06 01:06:14;;;;;;;14.33;7.63;;;;;;;-141.97;83.35;47680.53;5033425;28;20208;-90
2023/04/06 01:08:40;;;;;;;18.17;8.47;;;;;;;-141.97;83.68;47638.25;5034122;28;20427;-90
2023/04/06 01:11:05;;;;;;;17.63;9.07;;;;;;;-141.97;83.63;47678.63;5033896;28;20167;-89
2023/04/06 01:13:31;;;;;;;17.83;9.40;;;;;;;-141.97;83.83;47811.25;5045276;28;20247;-89
2023/04/06 01:15:56;;;;;;;10.90;6.30;;;;;;;-141.97;83.87;47707.44;5033291;28;20308;-90
2023/04/06 01:18:29;;;;;;;16.60;8.83;;;;;;;-141.97;83.92;47757.41;5033452;28;20200;-90
2023/04/06 01:20:54;;;;;;;17.73;8.70;;;;;;;-141.97;84.22;47801.63;5034742;28;20169;-90
2023/04/06 01:23:20;;;;;;;15.30;7.77;;;;;;;-141.97;84.14;47834.31;5033152;28;20444;-89
2023/04/06 01:25:45;;;;;;;16.40;7.93;;;;;;;-141.97;84.49;47742.03;5033572;28;20220;-89
2023/04/06 01:28:11;;;;;;;14.33;7.73;;;;;;;-141.97;84.58;47803.56;5034595;28;20164;-89
2023/04/06 01:30:36;;;;;;;15.00;8.10;;;;;;;-141.97;84.33;47701.69;5032861;28;20170;-90
2023/04/06 01:33:02;;;;;;;16.87;9.43;;;;;;;-141.97;84.87;47707.44;5033070;28;20178;-90
2023/04/06 01:35:28;;;;;;;20.97;9.93;;;;;;;-141.97;85.01;47718.97;5033035;28;20173;-90
2023/04/06 01:37:53;;;;;;;21.30;10.40;;;;;;;-141.97;85.22;47734.34;5033174;28;20203;-90
2023/04/06 01:40:19;;;;;;;16.03;8.03;;;;;;;-141.97;84.81;47699.75;5033297;28;20177;-90
2023/04/06 01:42:45;;;;;;;22.13;11.00;;;;;;;-141.97;85.38;47734.34;5034313;28;20185;-90
2023/04/06 01:45:10;;;;;;;20.03;8.87;;;;;;;-141.97;85.15;47684.38;5034534;28;20190;-90
2023/04/06 01:47:36;;;;;;;21.47;10.60;;;;;;;-141.97;85.47;47826.63;5033133;28;20166;-90
2023/04/06 01:50:02;;;;;;;22.97;11.07;;;;;;;-141.97;85.37;47718.97;5032974;28;20170;-90
2023/04/06 01:52:28;;;;;;;23.57;12.00;;;;;;;-141.97;85.44;47734.34;5032565;28;20665;-90
2023/04/06 01:54:54;;;;;;;22.60;10.73;;;;;;;-141.97;85.63;47730.50;5032434;28;20401;-90
2023/04/06 01:57:20;;;;;;;22.83;11.17;;;;;;;-141.97;85.39;47738.19;5032866;28;20407;-91
2023/04/06 01:59:45;;;;;;;23.37;12.10;;;;;;;-141.97;84.81;47736.28;5041458;28;20181;-89
2023/04/06 02:02:12;;;;;;;19.40;10.57;;;;;;;-141.97;84.94;47817.00;5044351;28;20417;-90
2023/04/06 02:04:38;;;;;;;18.43;9.67;;;;;;;-141.97;85.21;47763.19;5033984;28;20188;-89
2023/04/06 02:07:03;;;;;;;18.50;9.63;;;;;;;-141.97;84.83;47799.72;5032458;28;20405;-89
2023/04/06 02:09:29;;;;;;;13.90;7.37;;;;;;;-141.97;84.66;47768.94;5032705;28;20668;-90
2023/04/06 02:11:55;;;;;;;20.73;10.30;;;;;;;-141.97;84.83;47830.47;5032283;28;20634;-90
2023/04/06 02:14:23;;;;;;;20.63;9.47;;;;;;;-141.97;84.73;47770.88;5032156;28;20162;-90
2023/04/06 02:16:49;;;;;;;21.30;10.50;;;;;;;-141.97;84.67;47782.41;5032076;28;20476;-90
2023/04/06 02:19:14;;;;;;;17.67;8.80;;;;;;;-141.97;85.07;47805.47;5032053;28;20409;-91
2023/04/06 02:21:40;;;;;;;17.87;9.30;;;;;;;-141.97;84.74;47772.78;5034061;28;20241;-91
2023/04/06 02:24:06;;;;;;;21.87;10.60;;;;;;;-141.97;84.87;47765.09;5044036;28;20213;-90
2023/04/06 02:26:31;;;;;;;16.83;7.80;;;;;;;-141.97;85.04;47772.78;5050474;28;20182;-91
2023/04/06 02:28:57;;;;;;;22.63;11.17;;;;;;;-141.97;84.80;47669.00;5033676;28;20419;-91
2023/04/06 02:31:22;;;;;;;18.50;9.53;;;;;;;-141.97;84.86;47757.41;5048637;28;20554;-91
2023/04/06 02:33:47;;;;;;;20.00;9.70;;;;;;;-141.97;84.79;47718.97;5033599;28;20150;-90
2023/04/06 02:36:13;;;;;;;15.37;7.77;;;;;;;-141.97;84.72;47838.16;5034044;28;20166;-91
2023/04/06 02:38:38;;;;;;;22.37;12.07;;;;;;;-141.97;84.98;47680.53;5032321;28;20276;-91
2023/04/06 02:41:04;;;;;;;20.40;10.60;;;;;;;-141.97;84.98;47720.91;5031650;28;20182;-91
2023/04/06 02:43:29;;;;;;;25.17;12.37;;;;;;;-141.97;85.49;47753.56;5033154;28;20182;-91
2023/04/06 02:45:55;;;;;;;22.17;11.53;;;;;;;-141.97;85.45;47757.41;5032045;28;20170;-91
2023/04/06 02:48:20;;;;;;;24.53;12.63;;;;;;;-141.97;85.60;47818.94;5031760;28;20173;-91
2023/04/06 02:50:46;;;;;;;19.47;10.10;;;;;;;-141.97;85.73;47707.44;5032995;28;20612;-91
2023/04/06 02:53:11;;;;;;;22.60;11.07;;;;;;;-141.97;85.96;47728.59;5034578;28;20177;-91
2023/04/06 02:55:36;;;;;;;25.00;10.03;;;;;;;-141.97;85.79;47870.81;5036364;28;20190;-90
2023/04/06 02:58:02;;;;;;;19.77;9.60;;;;;;;-141.97;86.14;47742.03;5048358;28;20673;-90
2023/04/06 03:00:27;;;;;;;20.33;9.33;;;;;;;-141.97;86.29;47818.94;5056329;28;20186;-89
2023/04/06 03:02:53;;;;;;;30.10;14.00;;;;;;;-141.97;86.35;47715.13;5047431;28;20531;-89
2023/04/06 03:05:18;;;;;;;27.07;13.20;;;;;;;-141.97;86.40;47868.91;5035302;28;20188;-89
2023/04/06 03:07:43;;;;;;;19.57;9.50;;;;;;;-141.97;86.58;47747.81;5032222;28;20185;-90
2023/04/06 03:10:09;;;;;;;16.20;8.63;;;;;;;-141.97;86.58;47761.25;5032157;28;20174;-89
2023/04/06 03:12:35;;;;;;;20.33;10.67;;;;;;;-141.97;86.64;47805.47;5053585;28;20165;-89
2023/04/06 03:15:00;;;;;;;17.13;9.03;;;;;;;-141.97;86.66;47780.47;5053284;28;20182;-90
2023/04/06 03:17:26;;;;;;;19.07;9.33;;;;;;;-141.97;86.85;47718.97;5060950;28;20312;-90
2023/04/06 03:19:51;;;;;;;18.10;9.27;;;;;;;-141.97;87.12;47761.25;5033767;28;20186;-90
2023/04/06 03:22:16;;;;;;;24.67;11.67;;;;;;;-141.97;86.86;47649.78;5032087;28;20550;-91
2023/04/06 03:24:42;;;;;;;20.93;11.20;;;;;;;-141.97;86.97;47743.97;5048494;28;20198;-89
2023/04/06 03:27:07;;;;;;;22.63;10.97;;;;;;;-141.97;86.45;47822.78;5031044;28;20644;-90
2023/04/06 03:29:33;;;;;;;19.53;10.60;;;;;;;-141.97;86.66;47738.19;5031803;28;20170;-90
2023/04/06 03:31:58;;;;;;;17.80;9.37;;;;;;;-141.97;86.31;47682.47;5036665;28;20162;-89
2023/04/06 03:34:24;;;;;;;17.63;7.50;;;;;;;-141.97;86.54;47661.31;5037363;28;20170;-90
2023/04/06 03:36:49;;;;;;;21.20;10.17;;;;;;;-141.97;86.31;47667.06;5031613;28;20645;-91
2023/04/06 03:39:15;;;;;;;22.70;11.17;;;;;;;-141.97;86.20;47682.47;5031447;28;20166;-91
2023/04/06 03:41:40;;;;;;;18.67;8.80;;;;;;;-141.97;86.23;47684.38;5032386;28;20174;-90
2023/04/06 03:44:06;;;;;;;25.60;10.83;;;;;;;-141.97;85.68;47738.19;5030917;28;20697;-91
2023/04/06 03:46:31;;;;;;;21.40;10.23;;;;;;;-141.97;85.69;47830.47;5031447;28;20169;-89
2023/04/06 03:48:57;;;;;;;23.50;11.90;;;;;;;-141.97;85.58;47699.75;5031907;28;20170;-89
2023/04/06 03:51:22;;;;;;;24.13;11.93;;;;;;;-141.97;85.60;47743.97;5032578;28;20203;-90
2023/04/06 03:53:48;;;;;;;32.37;13.13;;;;;;;-141.97;85.52;47695.91;5033352;28;20188;-91
2023/04/06 03:56:13;;;;;;;31.37;14.40;;;;;;;-141.97;85.72;47676.69;5031118;28;20583;-90
2023/04/06 03:58:38;;;;;;;23.57;11.50;;;;;;;-141.97;85.45;47703.59;5032329;28;20177;-91
2023/04/06 04:01:04;;;;;;;22.60;11.30;;;;;;;-141.97;85.28;47815.09;5031869;28;20177;-91
2023/04/06 04:03:29;;;;;;;17.00;8.37;;;;;;;-141.97;85.16;47755.50;5034784;28;20273;-92
2023/04/06 04:05:55;;;;;;;21.80;10.60;;;;;;;-141.97;85.59;47703.59;5035812;28;20192;-91
2023/04/06 04:08:20;;;;;;;23.77;9.70;;;;;;;-141.97;85.43;47699.75;5036697;28;20182;-91
2023/04/06 04:10:46;;;;;;;25.83;12.27;;;;;;;-141.97;85.27;47830.47;5036446;28;20189;-91
2023/04/06 04:13:11;;;;;;;24.87;12.27;;;;;;;-141.97;84.88;47817.00;5036245;28;20220;-88
2023/04/06 04:15:37;;;;;;;23.23;10.93;;;;;;;-141.97;84.51;47732.44;5036288;28;20174;-90
2023/04/06 04:18:02;;;;;;;20.63;10.20;;;;;;;-141.97;84.38;47790.09;5048740;28;20257;-89
2023/04/06 04:20:28;;;;;;;21.87;11.70;;;;;;;-141.97;83.71;47861.22;5040372;28;20628;-90
2023/04/06 04:22:53;;;;;;;22.83;11.47;;;;;;;-141.97;83.62;47651.69;5036377;28;20249;-90
2023/04/06 04:25:19;;;;;;;24.37;11.97;;;;;;;-141.97;83.19;47817.00;5035140;28;20198;-91
2023/04/06 04:27:44;;;;;;;20.20;9.23;;;;;;;-141.97;82.86;47857.38;5034139;28;20180;-90
2023/04/06 04:30:10;;;;;;;23.53;11.07;;;;;;;-141.97;82.93;47813.16;5034840;28;20174;-91
2023/04/06 04:32:35;;;;;;;23.87;11.40;;;;;;;-141.97;82.30;47761.25;5034849;28;20166;-90
2023/04/06 04:35:01;;;;;;;23.93;12.30;;;;;;;-141.97;82.37;47861.22;5033903;28;20166;-91
2023/04/06 04:37:26;;;;;;;24.13;13.43;;;;;;;-141.97;82.18;47863.13;5035968;28;20182;-90
2023/04/06 04:39:52;;;;;;;25.80;14.30;;;;;;;-141.97;82.50;47713.22;5038356;28;20316;-91
2023/04/06 04:42:17;;;;;;;20.93;11.60;;;;;;;-141.97;82.16;47755.50;5037017;28;20558;-90
2023/04/06 04:44:43;;;;;;;17.63;9.50;;;;;;;-141.97;82.10;47728.59;5035454;28;20577;-90
2023/04/06 04:47:08;;;;;;;19.37;9.00;;;;;;;-141.97;82.63;47699.75;5036803;28;20224;-91
2023/04/06 04:49:33;;;;;;;22.30;10.23;;;;;;;-141.97;82.25;47703.59;5040990;28;20166;-90
2023/04/06 04:51:59;;;;;;;23.20;10.97;;;;;;;-141.97;82.21;47851.59;5037441;28;20178;-90
2023/04/06 04:54:24;;;;;;;29.37;14.57;;;;;;;-141.97;82.11;47688.22;5036753;28;20204;-91
2023/04/06 04:56:50;;;;;;;31.10;13.50;;;;;;;-141.97;82.19;47857.38;5033731;28;20180;-93
2023/04/06 04:59:16;;;;;;;22.43;9.83;;;;;;;-141.97;82.03;47609.41;5036711;28;20187;-91
2023/04/06 05:01:41;;;;;;;26.30;13.60;;;;;;;-141.97;81.98;47793.94;5036502;28;20596;-92
2023/04/06 05:04:07;;;;;;;22.03;9.70;;;;;;;-141.97;82.27;47682.47;5035729;28;20616;-91
2023/04/06 05:06:32;;;;;;;18.33;8.53;;;;;;;-141.97;81.46;47676.69;5054337;28;20174;-90
2023/04/06 05:08:57;;;;;;;21.73;11.37;;;;;;;-141.97;81.23;47669.00;5043625;28;20262;-91
2023/04/06 05:11:23;;;;;;;15.13;8.40;;;;;;;-141.97;81.66;47694.00;5038630;28;20235;-90
2023/04/06 05:13:48;;;;;;;17.60;9.57;;;;;;;-141.97;81.49;47670.91;5042330;28;20259;-92
2023/04/06 05:16:14;;;;;;;25.20;11.70;;;;;;;-141.97;81.54;47738.19;5033957;28;20605;-92
2023/04/06 05:18:39;;;;;;;19.27;9.30;;;;;;;-141.97;80.41;47795.88;5038681;28;20162;-91
2023/04/06 05:21:05;;;;;;;24.47;10.53;;;;;;;-141.97;80.15;47749.72;5057324;28;20190;-92
2023/04/06 05:23:30;;;;;;;18.70;9.53;;;;;;;-141.97;79.81;47726.66;5057489;28;20190;-91
2023/04/06 05:25:56;;;;;;;23.73;11.57;;;;;;;-141.97;79.60;47838.16;5041901;28;20269;-91
2023/04/06 05:28:22;;;;;;;23.67;12.17;;;;;;;-141.97;79.15;47757.41;5034777;28;20170;-91
2023/04/06 05:30:47;;;;;;;17.13;9.07;;;;;;;-141.97;79.03;47711.28;5035861;28;20597;-91
2023/04/06 05:33:13;;;;;;;20.60;10.93;;;;;;;-141.97;78.73;47830.47;5034030;28;20170;-91
2023/04/06 05:35:38;;;;;;;16.60;9.07;;;;;;;-141.97;78.60;47734.34;5033868;28;20213;-91
2023/04/06 05:38:08;;;;;;;24.20;12.43;;;;;;;-141.97;78.41;47778.56;5035646;28;20161;-91
2023/04/06 05:40:33;;;;;;;19.37;10.00;;;;;;;-141.97;78.10;47765.09;5034630;28;20197;-93
2023/04/06 05:42:59;;;;;;;17.43;8.80;;;;;;;-141.97;77.57;47782.41;5033233;28;20419;-91
2023/04/06 05:45:24;;;;;;;18.63;10.03;;;;;;;-141.97;77.62;47772.78;5034547;28;20169;-90
2023/04/06 05:47:50;;;;;;;19.60;9.07;;;;;;;-141.97;77.68;47732.44;5032319;28;20566;-89
2023/04/06 05:50:15;;;;;;;17.83;10.03;;;;;;;-141.97;77.33;47745.88;5033561;28;20257;-89
2023/04/06 05:52:42;;;;;;;14.80;9.27;;;;;;;-141.97;77.87;47688.22;5033706;28;20232;-89
2023/04/06 05:55:09;;;;;;;16.30;8.83;;;;;;;-141.97;77.19;47734.34;5032807;28;20162;-91
2023/04/06 05:57:34;;;;;;;17.87;8.47;;;;;;;-141.97;76.77;47661.31;5034089;28;20413;-89
2023/04/06 06:00:00;;;;;;;14.07;6.67;;;;;;;-141.97;76.59;47807.41;5032911;28;20511;-89
2023/04/06 06:02:25;;;;;;;19.20;10.77;;;;;;;-141.97;76.50;47815.09;5036405;28;20249;-90
2023/04/06 06:04:51;;;;;;;14.97;7.27;;;;;;;-141.97;76.42;47874.69;5053692;28;20277;-89
2023/04/06 06:07:17;;;;;;;13.27;7.53;;;;;;;-141.97;75.94;47686.31;5033144;28;20272;-88
2023/04/06 06:09:42;;;;;;;18.23;7.70;;;;;;;-141.97;75.85;47788.19;5032428;28;20205;-90
2023/04/06 06:12:08;;;;;;;14.20;8.00;;;;;;;-141.97;75.67;47782.41;5028779;28;20563;-89
2023/04/06 06:14:34;;;;;;;17.67;9.30;;;;;;;-141.97;75.97;47807.41;5031043;28;20676;-89
2023/04/06 06:16:59;;;;;;;16.70;9.30;;;;;;;-141.97;75.15;47692.06;5041225;28;20235;-89
2023/04/06 06:19:25;;;;;;;17.97;10.03;;;;;;;-141.97;75.76;47730.50;5053469;28;20178;-89
2023/04/06 06:21:50;;;;;;;17.80;10.13;;;;;;;-141.97;75.09;47715.13;5055843;28;20158;-90
2023/04/06 06:24:15;;;;;;;17.70;10.23;;;;;;;-141.97;74.89;47765.09;5037745;28;20645;-89
2023/04/06 06:26:41;;;;;;;15.50;8.07;;;;;;;-141.97;74.78;47670.91;5033402;28;20170;-90
2023/04/06 06:29:07;;;;;;;16.77;6.93;;;;;;;-141.97;73.90;47732.44;5032566;28;20642;-92
2023/04/06 06:31:32;;;;;;;18.07;9.20;;;;;;;-141.97;74.02;47793.94;5032642;28;20192;-89
2023/04/06 06:33:58;;;;;;;12.50;6.37;;;;;;;-141.97;73.12;47713.22;5033859;28;20646;-89
2023/04/06 06:36:25;;;;;;;12.30;7.13;;;;;;;-141.97;72.93;47759.34;5038698;28;20585;-89
2023/04/06 06:38:51;;;;;;;13.60;7.27;;;;;;;-141.97;72.69;47680.53;5032521;28;20181;-88
2023/04/06 06:41:17;;;;;;;11.83;6.83;;;;;;;-141.97;72.30;47788.19;5032283;28;20912;-88
2023/04/06 06:43:42;;;;;;;14.77;7.63;;;;;;;-141.97;72.48;47880.44;5030352;28;20539;-87
2023/04/06 06:46:09;;;;;;;13.20;7.20;;;;;;;-141.97;71.96;47865.06;5032323;28;20606;-89
2023/04/06 06:48:34;;;;;;;12.43;7.20;;;;;;;-141.97;71.71;47847.75;5031375;28;20419;-89
2023/04/06 06:51:00;;;;;;;17.03;8.13;;;;;;;-141.97;72.28;47724.75;5030593;28;20170;-89
2023/04/06 06:53:26;;;;;;;12.70;6.70;;;;;;;-141.97;71.35;47842.00;5030613;28;20170;-89
2023/04/06 06:55:51;;;;;;;16.43;9.87;;;;;;;-141.97;71.69;47792.03;5032358;28;20170;-88
2023/04/06 06:58:20;;;;;;;13.63;7.27;;;;;;;-141.97;70.72;47807.41;5035658;28;20189;-89
2023/04/06 07:00:45;;;;;;;18.23;8.53;;;;;;;-141.97;70.94;47788.19;5060096;28;20166;-89
2023/04/06 07:03:31;;;;;;;13.37;7.43;;;;;;;-141.97;70.24;47765.09;5043811;28;20416;-93
2023/04/06 07:05:57;;;;;;;11.57;6.10;;;;;;;-141.97;70.34;47738.19;5018857;28;20423;-93
2023/04/06 07:08:24;;;;;;;15.87;8.40;;;;;;;-141.97;70.57;47768.94;5016383;28;20460;-92
2023/04/06 07:10:57;;;;;;;14.07;7.53;;;;;;;-141.97;70.33;47780.47;4996758;28;20433;-92
2023/04/06 07:13:23;;;;;;;16.80;8.43;;;;;;;-141.97;70.05;47667.06;5005653;28;20409;-92
2023/04/06 07:15:49;;;;;;;23.60;11.43;;;;;;;-141.97;69.42;47803.56;4995903;28;20476;-91
2023/04/06 07:18:16;;;;;;;13.37;7.30;;;;;;;-141.97;69.58;47718.97;4996144;28;20441;-93
2023/04/06 07:20:41;;;;;;;15.57;8.60;;;;;;;-141.97;69.37;47799.72;4995399;28;20961;-91
2023/04/06 07:23:07;;;;;;;16.40;8.67;;;;;;;-141.97;68.93;47765.09;4995494;28;20417;-91
2023/04/06 07:25:32;;;;;;;19.97;7.07;;;;;;;-141.97;68.86;47776.63;4996016;28;20223;-91
2023/04/06 07:27:58;;;;;;;19.63;9.60;;;;;;;-141.97;69.05;47734.34;5011182;28;20171;-91
2023/04/06 07:30:26;;;;;;;18.83;10.50;;;;;;;-141.97;69.05;47711.28;4995505;28;20194;-91
2023/04/06 07:32:51;;;;;;;15.63;7.93;;;;;;;-141.97;68.81;47592.13;4995219;28;20227;-91
2023/04/06 07:35:17;;;;;;;11.33;6.40;;;;;;;-141.97;68.65;47838.16;5011542;28;20436;-93
2023/04/06 07:37:42;;;;;;;11.57;7.13;;;;;;;-141.97;68.65;47707.44;4998178;28;20183;-92
2023/04/06 07:40:08;;;;;;;13.17;8.33;;;;;;;-141.97;68.76;47772.78;4999889;28;20655;-92
2023/04/06 07:45:09;;;;;;;21.93;10.07;;;;;;;-141.97;68.05;47680.53;5572479;22;20467;-91
2023/04/06 07:47:35;;;;;;;18.13;8.90;;;;;;;-141.97;68.02;47715.13;5078411;28;20486;-92
2023/04/06 07:50:00;;;;;;;19.10;9.00;;;;;;;-141.97;68.44;47590.19;5075317;28;20234;-90
2023/04/06 07:52:26;;;;;;;23.03;10.20;;;;;;;-141.97;67.97;47626.72;5062447;28;20192;-91
2023/04/06 07:54:51;;;;;;;22.33;9.47;;;;;;;-141.97;67.98;47853.53;5053733;28;20185;-92
2023/04/06 07:57:18;;;;;;;26.63;11.60;;;;;;;-141.97;67.67;47782.41;5055024;28;20239;-92
2023/04/06 07:59:43;;;;;;;14.43;8.03;;;;;;;-141.97;67.27;47611.34;5056459;28;20661;-91
2023/04/06 08:02:09;;;;;;;14.30;8.13;;;;;;;-141.97;66.97;47715.13;5055598;28;20424;-91
2023/04/06 08:04:35;;;;;;;11.63;6.87;;;;;;;-141.97;67.17;47663.22;5054302;28;20767;-93
2023/04/06 08:07:00;;;;;;;10.43;6.30;;;;;;;-141.97;66.74;47661.31;5054255;28;20169;-93
2023/04/06 08:09:26;;;;;;;12.57;8.03;;;;;;;-141.97;66.30;47868.91;5034937;28;20228;-93
2023/04/06 08:11:52;;;;;;;15.07;8.67;;;;;;;-141.97;66.71;47642.09;5033617;28;20197;-93
2023/04/06 08:14:17;;;;;;;13.77;7.33;;;;;;;-141.97;65.52;47765.09;5034427;28;20268;-92
2023/04/06 08:16:43;;;;;;;14.60;8.13;;;;;;;-141.97;64.30;47865.06;5034511;28;20166;-92
2023/04/06 08:19:09;;;;;;;17.17;9.73;;;;;;;-141.97;64.23;47849.69;5033859;28;20650;-92
2023/04/06 08:21:39;;;;;;;19.13;8.90;;;;;;;-141.97;65.41;47793.94;5045517;28;20221;-92
2023/04/06 08:24:05;;;;;;;13.23;6.73;;;;;;;-141.97;64.69;47780.47;5050480;28;20685;-92
2023/04/06 08:26:31;;;;;;;13.07;8.07;;;;;;;-141.97;64.89;47717.06;5048694;28;20257;-92
2023/04/06 08:28:56;;;;;;;16.70;7.07;;;;;;;-141.97;64.25;47688.22;5046820;28;20181;-93
2023/04/06 08:31:22;;;;;;;13.30;7.53;;;;;;;-141.97;63.44;47799.72;5045318;28;20180;-91
2023/04/06 08:33:47;;;;;;;13.03;7.50;;;;;;;-141.97;63.29;47761.25;5040980;28;20189;-93
2023/04/06 08:36:14;;;;;;;13.67;7.70;;;;;;;-141.97;63.67;47759.34;5038417;28;20185;-91
2023/04/06 08:38:41;;;;;;;10.57;6.00;;;;;;;-141.97;49.46;47720.91;5052734;28;20190;-91
2023/04/06 08:41:08;;;;;;;17.60;9.37;;;;;;;-141.97;49.92;47843.91;5055092;28;20184;-92
2023/04/06 08:43:55;;;;;;;12.73;6.73;;;;;;;-141.97;49.42;47842.00;5043728;28;20198;-91
2023/04/06 08:46:21;;;;;;;10.00;6.07;;;;;;;-141.97;49.27;47707.44;5034334;28;20312;-93
2023/04/06 08:48:49;;;;;;;10.90;6.87;;;;;;;-141.97;49.19;47765.09;5034284;28;20231;-92
2023/04/06 08:51:15;;;;;;;12.77;6.87;;;;;;;-141.97;48.81;47707.44;5035255;28;20174;-93
2023/04/06 08:53:41;;;;;;;13.57;8.23;;;;;;;-141.97;49.28;47588.28;5036082;28;20702;-91
2023/04/06 08:56:08;;;;;;;11.10;6.40;;;;;;;-141.97;48.50;47749.72;5053794;28;20185;-90
2023/04/06 08:58:40;;;;;;;10.47;5.80;;;;;;;-141.97;48.21;47644.00;5036409;28;20189;-93
2023/04/06 09:01:10;;;;;;;9.53;6.53;;;;;;;-141.97;47.66;47840.06;5034006;28;20170;-91
2023/04/06 09:03:40;;;;;;;12.17;7.20;;;;;;;-141.97;47.57;47807.41;5035799;28;20197;-93
2023/04/06 09:06:07;;;;;;;11.77;5.40;;;;;;;-141.97;46.33;47649.78;5034195;28;20174;-94
2023/04/06 09:08:34;;;;;;;9.67;5.73;;;;;;;-141.97;46.27;47588.28;5050186;28;20175;-93
2023/04/06 09:11:01;;;;;;;10.23;5.30;;;;;;;-141.97;47.06;47690.16;5038656;28;20271;-92
2023/04/06 09:13:27;;;;;;;7.53;5.37;;;;;;;-141.97;46.94;47792.03;5060686;28;20167;-92
2023/04/06 09:16:03;;;;;;;5.63;3.80;;;;;;;-141.97;45.22;47793.94;5064197;28;20181;-92
2023/04/06 09:18:32;;;;;;;9.43;4.90;;;;;;;-141.97;45.41;47803.56;5058243;28;20177;-93
2023/04/06 09:21:03;;;;;;;11.40;5.10;;;;;;;-141.97;45.26;47661.31;5056107;28;20185;-92
2023/04/06 09:23:29;;;;;;;9.37;5.80;;;;;;;-141.97;43.91;47674.78;5055828;28;20197;-95
2023/04/06 09:26:11;;;;;;;6.70;4.50;;;;;;;-141.97;44.01;47728.59;5062494;28;20205;-93
2023/04/06 09:28:51;;;;;;;7.03;4.10;;;;;;;-141.97;43.29;47911.19;5062385;28;20249;-95
2023/04/06 09:31:22;;;;;;;5.57;3.80;;;;;;;-141.97;43.57;47815.09;5063163;28;20176;-91
2023/04/06 09:33:48;;;;;;;6.43;4.13;;;;;;;-141.97;43.67;47870.81;5069259;28;20201;-93
2023/04/06 09:36:15;;;;;;;5.60;3.67;;;;;;;-141.97;43.65;47726.66;5055873;28;20185;-90
2023/04/06 09:38:56;;;;;;;6.37;3.67;;;;;;;-141.97;43.93;47743.97;5062590;28;20212;-91
2023/04/06 09:41:33;;;;;;;8.40;5.20;;;;;;;-141.97;44.11;47728.59;5048631;28;20190;-92
2023/04/06 09:44:25;;;;;;;12.63;6.63;;;;;;;-141.97;43.19;47786.25;5034089;28;20263;-92
2023/04/06 09:46:54;;;;;;;8.90;5.37;;;;;;;-141.97;45.14;47720.91;4978257;28;20284;-92
2023/04/06 09:49:20;;;;;;;15.43;8.40;;;;;;;-141.97;44.10;47845.84;4994334;28;20194;-92
2023/04/06 09:51:48;;;;;;;11.80;7.33;;;;;;;-141.97;43.31;47830.47;4994276;28;20179;-92
2023/04/06 09:54:22;;;;;;;17.20;8.33;;;;;;;-141.97;42.25;47603.66;4977993;28;20296;-91
2023/04/06 09:56:58;;;;;;;6.53;4.37;;;;;;;-141.97;42.40;47707.44;4994038;28;20652;-91
2023/04/06 09:59:42;;;;;;;10.50;6.97;;;;;;;-141.97;43.52;47772.78;4994135;28;20207;-91
2023/04/06 10:02:18;;;;;;;13.60;7.97;;;;;;;-141.97;43.11;47649.78;4977406;28;20353;-92
2023/04/06 10:04:53;;;;;;;9.97;5.00;;;;;;;-141.97;42.11;47713.22;4977055;28;20219;-92
2023/04/06 10:07:19;;;;;;;8.23;5.40;;;;;;;-141.97;43.16;47776.63;4995500;28;20179;-90
2023/04/06 10:09:46;;;;;;;10.67;6.37;;;;;;;-141.97;43.05;47755.50;5016531;28;20207;-92
2023/04/06 10:12:12;;;;;;;12.70;7.60;;;;;;;-141.97;42.81;47688.22;4986634;28;20238;-92
2023/04/06 10:14:39;;;;;;;20.30;11.87;;;;;;;-141.97;42.28;47703.59;4976113;28;20298;-92
2023/04/06 10:17:05;;;;;;;56.50;27.90;;;;;;;-141.97;43.09;47745.88;4993231;28;20211;-91
2023/04/06 10:19:46;;;;;;;14.90;9.20;;;;;;;-141.97;42.35;47672.84;4992356;28;20663;-91
2023/04/06 10:22:22;;;;;;;11.87;7.80;;;;;;;-141.97;42.51;47740.13;4993301;28;20190;-92
2023/04/06 10:24:48;;;;;;;13.40;7.87;;;;;;;-141.97;42.11;47743.97;5068611;28;20212;-92
2023/04/06 10:27:13;;;;;;;16.07;8.30;;;;;;;-141.97;41.76;47619.03;5053199;28;20192;-91
2023/04/06 10:29:46;;;;;;;10.03;5.73;;;;;;;-141.97;42.93;47778.56;5052508;28;20188;-92
2023/04/06 10:32:12;;;;;;;25.30;11.63;;;;;;;-141.97;42.11;47724.75;5061305;28;20176;-88
2023/04/06 10:34:37;;;;;;;9.90;5.67;;;;;;;-141.97;42.28;47780.47;5058914;28;20173;-91
2023/04/06 10:37:16;;;;;;;9.67;4.90;;;;;;;-141.97;41.62;47780.47;5054331;28;20231;-92
2023/04/06 10:39:58;;;;;;;9.33;4.83;;;;;;;-141.97;42.82;47749.72;5056116;28;20633;-91
2023/04/06 10:42:38;;;;;;;13.50;8.93;;;;;;;-141.97;42.84;47663.22;5053385;28;20188;-92
2023/04/06 10:45:07;;;;;;;11.83;6.57;;;;;;;-141.97;41.67;47722.81;5052530;28;20248;-92
2023/04/06 10:47:40;;;;;;;11.40;7.20;;;;;;;-141.97;42.24;47838.16;5051807;28;20209;-92
2023/04/06 10:50:06;;;;;;;11.57;7.50;;;;;;;-141.97;42.23;47730.50;5052489;28;20649;-93
2023/04/06 10:52:31;;;;;;;14.70;8.23;;;;;;;-141.97;41.07;47653.63;5053492;28;20266;-92
2023/04/06 10:54:57;;;;;;;9.00;4.80;;;;;;;-141.97;39.98;47665.16;5051607;28;20164;-90
2023/04/06 10:57:30;;;;;;;6.93;3.93;;;;;;;-141.97;41.05;47745.88;5052273;28;20548;-91
2023/04/06 10:59:56;;;;;;;9.33;5.87;;;;;;;-141.97;39.92;47751.66;5053014;28;20191;-90
2023/04/06 11:02:21;;;;;;;8.83;5.57;;;;;;;-141.97;40.06;47692.06;5051957;28;20717;-91
2023/04/06 11:04:57;;;;;;;9.47;5.50;;;;;;;-141.97;40.11;47763.19;5052036;28;20581;-91
2023/04/06 11:07:24;;;;;;;10.23;6.80;;;;;;;-141.97;40.48;47680.53;5047175;28;20162;-91